Airfield :
LOGIN :

Register | Disclaimer

   EN    FR    IT 

 










Legend :    VFR   Marginal VFR   IFR   Intensive IFR   Very Intensive IFR
Visi :
Ceiling :
>= 8 km
>= 3000ft
5 to 8 km
1000 to 3000 ft
1500m to 5 km
500 to 1000 ft
800 to 1500m
200 to 500 ft
< 800m
< 200 ft
Symbols :   Thunderstorms  Fog  Heavy snow  Heavy precipitations  Wind > 20 kt
SIGMETs :     Misc.  Thunderstorms  Icing  Turbulence  Mountain Waves  Volcanic Ashes






- Airport Elevation : 1411 ft
- IATA code : SZG


LOWS - Salzburg

CURRENT METAR :
  • 192050Z AUTO 16004KT 130V190 9999 NSC 24/16 Q1013

EXPIRED METARs :
  • 192020Z 16004KT CAVOK 24/16 Q1013 NOSIG
  • 191950Z VRB01KT CAVOK 25/16 Q1013 NOSIG
  • 191920Z VRB01KT CAVOK 28/14 Q1013 NOSIG
  • 191850Z 05005KT 020V080 CAVOK 29/13 Q1013 NOSIG
  • 191820Z 06006KT 020V080 CAVOK 29/14 Q1013 NOSIG

TAF TAF LOWS
Valid from the 19 at 18:00 until the 20 at 18:00 UTC


191715Z 1918/2018 01006KT CAVOK TX32/2013Z TN20/2002Z
BECMG 1919/1921 15007KT
BECMG 2008/2010 34005KT 9999 FEW060
TEMPO 2014/2018 FEW060CB
PROB30
TEMPO 2016/2018 24015G30KT TSRA SCT050CB BKN060



MET'MAP, your aeronautical weather chart ! - Copyright ORBIFLY December 2007 - Disclaimer

ORBIFLY MET'MAP TEAM :

Programming & Development : Alexandra Zaïnal
Concept & original design : Baudouin d'Aumeries
Assistance for programming : Marc-Olivier Méhu
Technical & hardware support : Manuel Goepfert

Contact : metmap@orbifly.com




SOURCES & CREDITS :

   NOAA